Time;durP1;ratioP1;P1;durP2;ratioP2;P2;SDS_P1;SDS_P2;PMS_P1;PMS_P2;Temp;Humidity;BMP_temperature;BMP_pressure;BME280_temperature;BME280_humidity;BME280_pressure;Samples;Min_cycle;Max_cycle;Signal;HPM_P1;HPM_P2
2022/01/25 00:27:12;;;;;;;10.15;7.10;;;;;;;9.21;49.42;102989.94;4986813;28;20089;-79
2022/01/25 00:32:07;;;;;;;9.32;7.47;;;;;;;9.23;49.26;103001.59;5012551;28;20054;-79
2022/01/25 00:34:34;;;;;;;8.23;6.55;;;;;;;9.24;49.04;103003.38;5009456;28;20069;-79
2022/01/25 00:37:00;;;;;;;9.05;6.65;;;;;;;9.24;49.56;103004.25;5017637;28;20081;-79
2022/01/25 00:39:27;;;;;;;10.50;7.50;;;;;;;9.25;49.34;103007.88;5009010;28;20457;-79
2022/01/25 00:41:53;;;;;;;11.65;7.57;;;;;;;9.26;49.48;103007.81;5009079;28;20053;-79
2022/01/25 00:44:20;;;;;;;10.65;7.30;;;;;;;9.28;49.30;103003.25;5011469;28;20089;-79
2022/01/25 00:46:47;;;;;;;11.38;8.55;;;;;;;9.29;49.37;103004.16;5009799;28;20053;-80
2022/01/25 00:49:25;;;;;;;10.77;8.52;;;;;;;9.28;49.27;103002.38;5008713;28;20501;-80
2022/01/25 00:56:50;;;;;;;9.98;7.45;;;;;;;9.33;49.33;103000.41;5008430;28;20062;-79
2022/01/25 00:59:35;;;;;;;8.82;7.20;;;;;;;9.33;49.25;102992.28;5007969;28;20077;-79
2022/01/25 01:02:14;;;;;;;9.05;7.18;;;;;;;9.35;49.11;102993.13;5009657;28;20081;-79
2022/01/25 01:04:42;;;;;;;10.27;7.20;;;;;;;9.33;49.38;103003.13;5007234;28;20125;-80
2022/01/25 01:07:12;;;;;;;9.98;7.07;;;;;;;9.35;49.19;102998.56;5007601;28;20053;-79
2022/01/25 01:09:42;;;;;;;11.55;7.78;;;;;;;9.34;49.43;103000.38;5007853;28;20147;-80
2022/01/25 01:12:20;;;;;;;10.18;7.32;;;;;;;9.35;49.19;103004.88;5010748;28;20056;-79
2022/01/25 01:15:17;;;;;;;10.13;7.30;;;;;;;9.34;49.16;103008.50;5010867;28;20050;-80
2022/01/25 01:29:02;;;;;;;10.60;7.63;;;;;;;9.31;49.31;103008.59;5006101;28;20661;-80
2022/01/25 01:44:19;;;;;;;9.80;7.47;;;;;;;9.26;49.16;103009.66;5007520;28;20614;-80
2022/01/25 01:47:01;;;;;;;11.57;7.90;;;;;;;9.23;49.27;103009.72;5009083;28;20188;-79
2022/01/25 01:49:30;;;;;;;11.75;7.53;;;;;;;9.22;49.15;103007.97;5007943;28;20054;-80
2022/01/25 01:51:56;;;;;;;11.48;7.50;;;;;;;9.22;49.49;102999.84;5009508;28;20049;-80
2022/01/25 01:58:10;;;;;;;9.20;6.88;;;;;;;9.16;49.20;103001.75;5000296;28;20561;-79
2022/01/25 02:00:41;;;;;;;13.38;8.18;;;;;;;9.22;49.34;103002.53;5009485;28;20085;-79
2022/01/25 02:03:08;;;;;;;10.15;7.85;;;;;;;9.22;49.21;102998.03;5017631;28;20513;-79
2022/01/25 02:05:35;;;;;;;14.88;8.77;;;;;;;9.21;49.42;102998.94;5003652;28;20046;-79
2022/01/25 02:08:02;;;;;;;11.57;8.23;;;;;;;9.21;49.50;103001.66;5008601;28;20544;-80
2022/01/25 02:10:30;;;;;;;11.73;8.77;;;;;;;9.22;49.40;102999.84;5007581;28;20061;-79
2022/01/25 02:12:57;;;;;;;12.13;8.13;;;;;;;9.24;49.42;103000.66;5007102;28;20662;-80
2022/01/25 02:15:26;;;;;;;11.75;7.93;;;;;;;9.26;49.55;103001.53;5009898;28;20057;-80
2022/01/25 02:23:21;;;;;;;11.88;8.15;;;;;;;9.29;49.53;103005.06;5010440;28;20053;-79
2022/01/25 02:25:53;;;;;;;12.32;8.25;;;;;;;9.29;49.59;102996.91;5010623;28;20052;-79
2022/01/25 02:28:21;;;;;;;12.98;8.68;;;;;;;9.30;49.44;103000.53;5021613;28;20061;-79
2022/01/25 02:30:48;;;;;;;13.05;9.27;;;;;;;9.31;49.47;102997.75;5010591;28;20104;-79
2022/01/25 02:33:15;;;;;;;14.02;9.70;;;;;;;9.30;49.07;102987.84;5014675;28;20045;-79
2022/01/25 02:35:42;;;;;;;12.73;8.68;;;;;;;9.31;49.13;102994.13;5009932;28;20116;-79
2022/01/25 02:38:09;;;;;;;13.75;8.77;;;;;;;9.31;49.14;102989.59;5012398;28;20050;-79
2022/01/25 02:40:36;;;;;;;13.10;9.20;;;;;;;9.30;49.15;102997.81;5011173;28;20089;-79
2022/01/25 02:43:03;;;;;;;14.25;9.10;;;;;;;9.29;49.20;102994.22;5011539;28;20050;-79
2022/01/25 02:45:34;;;;;;;13.27;8.75;;;;;;;9.28;49.18;102987.00;5009961;28;20046;-79
2022/01/25 02:50:49;;;;;;;13.20;8.75;;;;;;;9.29;49.17;102977.94;5010827;28;20058;-80
2022/01/25 02:53:16;;;;;;;15.20;9.40;;;;;;;9.27;49.29;102982.50;5011888;28;20138;-80
2022/01/25 02:55:42;;;;;;;13.85;9.57;;;;;;;9.26;49.17;102975.31;5008312;28;20148;-79
2022/01/25 02:58:09;;;;;;;15.43;9.80;;;;;;;9.27;49.18;102978.91;5011712;28;20097;-80
2022/01/25 03:00:36;;;;;;;13.68;9.13;;;;;;;9.25;49.21;102984.38;5008931;28;20050;-80
2022/01/25 03:03:03;;;;;;;13.60;8.75;;;;;;;9.24;49.33;102976.25;5012038;28;20045;-79
2022/01/25 03:05:30;;;;;;;14.80;9.77;;;;;;;9.26;49.47;102979.84;5009289;28;20054;-80
2022/01/25 03:07:57;;;;;;;14.90;10.05;;;;;;;9.25;49.62;102975.34;5010053;28;20100;-79
2022/01/25 03:10:33;;;;;;;14.88;9.02;;;;;;;9.28;49.17;102972.56;5015511;28;20515;-80
2022/01/25 03:13:00;;;;;;;14.75;9.38;;;;;;;9.26;49.48;102966.28;5013781;28;20162;-80
2022/01/25 03:15:43;;;;;;;14.65;9.55;;;;;;;9.27;49.44;102966.25;5008915;28;20525;-80
2022/01/25 03:18:23;;;;;;;15.05;9.98;;;;;;;9.26;49.60;102963.56;5011041;28;20093;-80
2022/01/25 03:21:01;;;;;;;17.17;10.55;;;;;;;9.28;49.15;102968.03;5010259;28;20521;-80
2022/01/25 03:23:29;;;;;;;16.58;10.52;;;;;;;9.29;49.42;102969.81;5013389;28;20085;-79
2022/01/25 03:25:56;;;;;;;17.50;11.00;;;;;;;9.28;49.08;102965.31;5008828;28;20141;-80
2022/01/25 03:28:24;;;;;;;18.23;11.45;;;;;;;9.28;48.92;102968.03;5010348;28;20088;-80
2022/01/25 03:30:51;;;;;;;18.35;11.45;;;;;;;9.27;49.04;102963.53;5008746;28;20064;-79
2022/01/25 03:33:18;;;;;;;21.83;12.35;;;;;;;9.25;48.88;102965.38;4996743;28;20057;-80
2022/01/25 03:35:46;;;;;;;23.85;13.32;;;;;;;9.21;49.08;102965.53;5001472;28;20070;-80
2022/01/25 03:38:13;;;;;;;23.17;12.40;;;;;;;9.19;48.83;102957.44;5008688;28;20148;-79
2022/01/25 03:40:39;;;;;;;22.15;12.35;;;;;;;9.15;48.81;102962.03;5009554;28;20478;-80
2022/01/25 03:43:08;;;;;;;21.30;12.40;;;;;;;9.12;48.97;102955.84;5010428;28;20133;-80
2022/01/25 03:45:37;;;;;;;24.38;13.82;;;;;;;9.10;49.05;102965.81;5012202;28;20480;-80
2022/01/25 03:50:42;;;;;;;23.65;12.85;;;;;;;9.05;49.09;102954.22;5003085;28;20090;-79
2022/01/25 03:53:10;;;;;;;19.20;11.93;;;;;;;9.02;49.07;102957.00;5005685;28;20041;-80
2022/01/25 03:55:38;;;;;;;24.42;12.63;;;;;;;9.01;49.16;102952.50;5008588;28;20065;-79
2022/01/25 03:58:05;;;;;;;20.75;12.57;;;;;;;8.99;49.00;102952.53;5010099;28;20152;-79
2022/01/25 04:00:33;;;;;;;17.25;10.80;;;;;;;8.98;49.43;102944.44;5009817;28;20053;-80
2022/01/25 04:03:05;;;;;;;22.73;11.73;;;;;;;8.98;49.36;102947.16;5018462;28;20061;-80
2022/01/25 04:05:38;;;;;;;19.90;11.40;;;;;;;8.99;49.32;102955.25;5006743;28;20061;-79
2022/01/25 04:08:05;;;;;;;17.42;10.50;;;;;;;8.99;49.31;102947.13;5019285;28;20489;-79
2022/01/25 04:10:32;;;;;;;17.40;10.13;;;;;;;9.02;49.15;102944.34;5009396;28;20553;-79
2022/01/25 04:12:59;;;;;;;16.42;10.82;;;;;;;9.01;49.21;102949.81;5009560;28;20144;-79
2022/01/25 04:15:26;;;;;;;17.65;10.35;;;;;;;8.99;49.10;102949.84;5018287;28;20129;-79
2022/01/25 04:18:02;;;;;;;17.55;11.40;;;;;;;8.99;49.06;102948.94;5008973;28;20085;-80
2022/01/25 04:20:33;;;;;;;19.63;11.30;;;;;;;8.96;49.11;102949.94;4997294;28;20136;-79
2022/01/25 04:25:45;;;;;;;18.90;11.80;;;;;;;8.92;48.98;102941.91;5005198;28;20066;-80
2022/01/25 04:28:11;;;;;;;15.65;10.25;;;;;;;8.92;49.18;102942.81;5013983;28;20140;-80
2022/01/25 04:30:38;;;;;;;16.38;10.75;;;;;;;8.92;49.24;102937.38;5015956;28;20042;-79
2022/01/25 04:33:17;;;;;;;16.85;10.32;;;;;;;8.91;49.13;102946.44;5008736;28;20059;-79
2022/01/25 04:35:57;;;;;;;14.82;9.48;;;;;;;8.91;49.38;102949.16;5007583;28;20053;-79
2022/01/25 04:49:29;;;;;;;14.45;9.30;;;;;;;8.92;49.22;102942.81;4997646;28;20060;-79
2022/01/25 04:52:05;;;;;;;12.60;9.10;;;;;;;8.92;49.17;102942.81;5008948;28;20043;-80
2022/01/25 05:02:14;;;;;;;13.80;9.20;;;;;;;8.98;49.14;102939.94;5009392;28;20050;-79
2022/01/25 05:04:56;;;;;;;13.32;9.18;;;;;;;8.99;49.06;102928.16;5006914;28;20057;-79
2022/01/25 05:10:25;;;;;;;14.77;9.07;;;;;;;9.01;49.04;102930.84;4947404;28;20171;-80
2022/01/25 05:13:07;;;;;;;14.32;9.50;;;;;;;9.03;49.39;102928.97;4994929;28;20057;-80
2022/01/25 05:18:16;;;;;;;14.73;9.52;;;;;;;9.02;48.88;102938.94;5008264;28;20096;-80
2022/01/25 05:23:28;;;;;;;13.70;9.85;;;;;;;8.99;49.22;102933.59;5016268;28;20335;-80
2022/01/25 05:25:55;;;;;;;15.13;10.35;;;;;;;9.01;49.37;102937.16;5018481;28;20084;-79
2022/01/25 05:28:21;;;;;;;16.13;10.02;;;;;;;9.02;49.10;102936.22;5008984;28;20460;-79
2022/01/25 05:30:48;;;;;;;15.43;9.88;;;;;;;9.03;48.80;102931.69;5005824;28;20049;-79
2022/01/25 05:33:15;;;;;;;17.75;11.10;;;;;;;9.03;49.27;102934.41;5008693;28;20046;-80
2022/01/25 05:35:41;;;;;;;15.57;9.93;;;;;;;9.01;49.09;102931.72;5007063;28;20085;-79
2022/01/25 05:38:08;;;;;;;16.20;10.52;;;;;;;9.02;49.08;102933.50;5008656;28;20502;-80
2022/01/25 05:40:55;;;;;;;15.32;10.35;;;;;;;9.03;48.97;102937.13;5006770;28;20413;-79
2022/01/25 05:46:14;;;;;;;15.65;10.15;;;;;;;8.98;48.85;102930.91;4999771;28;20054;-79
2022/01/25 05:48:41;;;;;;;17.98;11.32;;;;;;;8.95;48.72;102936.44;5007605;28;20500;-79
2022/01/25 05:51:08;;;;;;;17.27;10.70;;;;;;;8.93;48.68;102931.03;5007902;28;20061;-79
2022/01/25 05:53:35;;;;;;;17.20;10.63;;;;;;;8.91;48.73;102930.19;5013118;28;20485;-79
2022/01/25 05:56:02;;;;;;;16.33;11.48;;;;;;;8.87;48.86;102931.22;5016574;28;20074;-79
2022/01/25 05:58:28;;;;;;;16.52;10.57;;;;;;;8.85;48.83;102932.19;4999800;28;20041;-79
2022/01/25 06:00:55;;;;;;;16.25;10.50;;;;;;;8.83;49.21;102931.31;5011221;28;20081;-79
2022/01/25 06:03:22;;;;;;;15.27;10.10;;;;;;;8.83;48.95;102931.31;5011105;28;20058;-79
2022/01/25 06:05:49;;;;;;;17.95;10.85;;;;;;;8.80;49.07;102921.47;5010592;28;20160;-79
2022/01/25 06:08:15;;;;;;;14.82;9.70;;;;;;;8.78;48.84;102924.22;5012369;28;20093;-79
2022/01/25 06:10:42;;;;;;;18.90;11.80;;;;;;;8.78;49.20;102918.81;5000236;28;20086;-79
2022/01/25 06:13:08;;;;;;;18.48;12.02;;;;;;;8.79;49.43;102919.69;5002738;28;20100;-80
2022/01/25 06:15:35;;;;;;;17.10;11.45;;;;;;;8.81;49.06;102925.09;5008834;28;20115;-79
2022/01/25 06:18:02;;;;;;;17.80;11.30;;;;;;;8.79;49.09;102922.41;5006875;28;20460;-80
2022/01/25 06:20:29;;;;;;;16.17;10.32;;;;;;;8.79;49.33;102922.41;5010586;28;20054;-79
2022/01/25 06:22:56;;;;;;;19.25;11.10;;;;;;;8.80;49.36;102934.13;5012322;28;20089;-79
2022/01/25 06:25:23;;;;;;;18.85;11.48;;;;;;;8.81;49.30;102934.09;5009509;28;20054;-79
2022/01/25 06:27:50;;;;;;;19.02;11.38;;;;;;;8.83;49.42;102931.31;5009225;28;20449;-78
2022/01/25 06:30:18;;;;;;;18.13;12.00;;;;;;;8.83;49.28;102926.78;5008249;28;20104;-79
2022/01/25 06:32:46;;;;;;;17.08;12.07;;;;;;;8.83;49.00;102931.31;5009578;28;20363;-80
2022/01/25 06:35:15;;;;;;;15.65;10.45;;;;;;;8.83;48.87;102934.94;5009399;28;20083;-79
2022/01/25 06:37:43;;;;;;;17.25;10.88;;;;;;;8.82;48.96;102937.66;4998131;28;20049;-79
2022/01/25 06:40:11;;;;;;;16.58;11.02;;;;;;;8.79;49.09;102933.25;5010832;28;20046;-79
2022/01/25 06:42:38;;;;;;;15.85;10.88;;;;;;;8.79;49.07;102946.78;5013802;28;20457;-79
2022/01/25 06:45:13;;;;;;;16.48;10.85;;;;;;;8.78;49.08;102935.06;5015811;28;20046;-79
2022/01/25 06:47:40;;;;;;;19.00;11.55;;;;;;;8.75;48.92;102943.25;5026607;28;20100;-79
2022/01/25 06:50:07;;;;;;;17.08;10.90;;;;;;;8.75;49.26;102950.47;5010421;28;20140;-80
2022/01/25 06:52:38;;;;;;;17.92;11.90;;;;;;;8.74;49.03;102946.88;5009972;28;20061;-80
2022/01/25 06:55:07;;;;;;;18.52;11.52;;;;;;;8.73;49.04;102945.09;5008649;28;20553;-79
2022/01/25 06:57:33;;;;;;;18.90;12.38;;;;;;;8.72;49.05;102947.88;5009861;28;20054;-79
2022/01/25 07:00:00;;;;;;;20.73;12.95;;;;;;;8.71;49.26;102955.09;5007545;28;20058;-79
2022/01/25 07:02:27;;;;;;;19.73;12.20;;;;;;;8.70;49.06;102949.72;5003808;28;20496;-79
2022/01/25 07:04:54;;;;;;;19.60;12.23;;;;;;;8.69;49.16;102956.06;5010093;28;20061;-79
2022/01/25 07:07:20;;;;;;;18.52;11.18;;;;;;;8.69;49.15;102945.25;5009919;28;20054;-79
2022/01/25 07:09:47;;;;;;;19.90;11.63;;;;;;;8.68;49.06;102955.19;5004766;28;20494;-80
2022/01/25 07:12:16;;;;;;;18.75;12.05;;;;;;;8.71;48.80;102957.81;5008410;28;20065;-80
2022/01/25 07:14:43;;;;;;;20.10;12.25;;;;;;;8.69;49.14;102953.34;5007525;28;20061;-79
2022/01/25 07:17:10;;;;;;;19.70;12.35;;;;;;;8.67;48.99;102945.28;5008868;28;20551;-79
2022/01/25 07:19:37;;;;;;;19.33;12.15;;;;;;;8.68;49.46;102954.28;5005273;28;20084;-78
2022/01/25 07:22:03;;;;;;;21.85;12.77;;;;;;;8.67;48.92;102947.97;5006956;28;20081;-79
2022/01/25 07:24:31;;;;;;;18.42;11.48;;;;;;;8.67;49.22;102950.69;5007406;28;20065;-79
2022/01/25 07:26:57;;;;;;;20.27;12.48;;;;;;;8.67;49.30;102941.66;5009780;28;20409;-79
2022/01/25 07:29:25;;;;;;;20.00;12.10;;;;;;;8.69;49.15;102939.81;5005599;28;20054;-79
2022/01/25 07:31:53;;;;;;;17.58;10.98;;;;;;;8.68;49.17;102943.44;5007160;28;20054;-79
2022/01/25 07:34:23;;;;;;;22.38;12.73;;;;;;;8.69;48.99;102945.25;5009815;28;20064;-79
2022/01/25 07:37:03;;;;;;;19.20;12.20;;;;;;;8.67;49.13;102944.38;5008540;28;20046;-80
2022/01/25 07:39:44;;;;;;;20.50;12.43;;;;;;;8.68;49.27;102941.63;5018444;28;20631;-80
2022/01/25 07:42:12;;;;;;;22.23;12.80;;;;;;;8.68;49.17;102940.75;5023920;28;20061;-78
2022/01/25 07:44:39;;;;;;;20.85;12.20;;;;;;;8.68;49.13;102940.75;5001166;28;20065;-79
2022/01/25 07:47:08;;;;;;;22.00;12.65;;;;;;;8.69;48.94;102945.25;5010040;28;20065;-79
2022/01/25 07:49:36;;;;;;;20.10;12.57;;;;;;;8.70;49.29;102941.59;5009347;28;20390;-80
2022/01/25 07:52:04;;;;;;;19.50;11.98;;;;;;;8.71;48.95;102941.56;5011170;28;20089;-80
2022/01/25 07:54:31;;;;;;;21.45;11.95;;;;;;;8.70;49.37;102942.50;5009691;28;20062;-80
2022/01/25 07:56:58;;;;;;;22.52;12.88;;;;;;;8.72;48.95;102945.16;5007857;28;20159;-79
2022/01/25 07:59:25;;;;;;;21.50;12.90;;;;;;;8.72;49.25;102948.78;5008405;28;20077;-79
2022/01/25 08:01:52;;;;;;;20.90;12.60;;;;;;;8.73;48.77;102949.63;5006341;28;20085;-79
2022/01/25 08:04:32;;;;;;;20.50;12.25;;;;;;;8.70;49.03;102956.03;4993142;28;20058;-81
2022/01/25 08:07:10;;;;;;;18.85;11.48;;;;;;;8.70;49.05;102944.31;5007288;28;20045;-81
2022/01/25 08:09:37;;;;;;;20.10;12.02;;;;;;;8.70;49.06;102952.44;5009685;28;20061;-80
2022/01/25 08:12:33;;;;;;;19.85;12.32;;;;;;;8.67;49.23;102961.50;5004050;28;20049;-80
2022/01/25 08:15:16;;;;;;;21.08;12.35;;;;;;;8.68;48.85;102957.00;4995603;28;20451;-80
2022/01/25 08:18:00;;;;;;;20.52;12.30;;;;;;;8.66;48.92;102959.72;5010694;28;20092;-80
2022/01/25 08:20:43;;;;;;;21.08;11.70;;;;;;;8.63;48.96;102961.66;4998638;28;20342;-80
2022/01/25 08:23:13;;;;;;;18.35;11.23;;;;;;;8.64;48.96;102955.31;5008410;28;20057;-80
2022/01/25 08:26:03;;;;;;;20.30;11.88;;;;;;;8.62;48.87;102958.03;5007047;28;20409;-80
2022/01/25 08:28:52;;;;;;;20.42;12.02;;;;;;;8.61;49.07;102953.56;5006774;28;20057;-80
2022/01/25 08:31:39;;;;;;;18.67;12.38;;;;;;;8.58;49.12;102959.03;4957726;28;20109;-80
2022/01/25 08:34:11;;;;;;;21.00;12.73;;;;;;;8.57;48.78;102959.97;4980236;28;20122;-79
2022/01/25 08:36:52;;;;;;;18.80;11.50;;;;;;;8.58;48.92;102960.84;4952408;28;20059;-80
2022/01/25 08:39:26;;;;;;;19.48;11.45;;;;;;;8.58;48.94;102969.88;4971094;28;20078;-80
2022/01/25 08:41:59;;;;;;;18.70;11.00;;;;;;;8.57;48.99;102961.78;4965192;28;20043;-79
2022/01/25 08:44:30;;;;;;;19.33;12.40;;;;;;;8.56;49.03;102971.75;4961736;28;20396;-78
2022/01/25 08:47:11;;;;;;;19.35;12.00;;;;;;;8.56;48.84;102960.03;4956608;28;20063;-79
2022/01/25 08:49:43;;;;;;;20.70;12.57;;;;;;;8.52;48.87;102967.31;4972611;28;20051;-79
2022/01/25 08:52:31;;;;;;;21.25;12.05;;;;;;;8.50;48.78;102966.47;4909096;29;20048;-78
2022/01/25 08:55:15;;;;;;;18.70;11.27;;;;;;;8.49;48.90;102964.69;4925466;28;20066;-78
2022/01/25 08:57:52;;;;;;;;;;;;;;;8.28;49.37;102976.00;4978733;28;20047;-78
2022/01/25 09:00:25;;;;;;;17.23;9.90;;;;;;;8.43;49.11;102974.78;4965856;28;19922;-79
2022/01/25 09:02:52;;;;;;;18.60;10.20;;;;;;;8.48;48.92;102979.16;4981134;28;20047;-80
2022/01/25 09:05:37;;;;;;;19.20;11.75;;;;;;;8.47;48.93;102976.50;4953417;28;20057;-79
2022/01/25 09:08:05;;;;;;;18.95;11.45;;;;;;;8.48;48.99;102973.75;4979453;28;20456;-78
2022/01/25 09:10:33;;;;;;;19.00;11.63;;;;;;;8.47;48.78;102977.38;5013509;28;20094;-79
2022/01/25 09:13:00;;;;;;;18.92;11.30;;;;;;;8.48;49.14;102979.16;5007052;28;20045;-79
2022/01/25 09:15:27;;;;;;;22.27;12.38;;;;;;;8.49;48.99;102988.16;5002783;28;20095;-78
2022/01/25 09:17:54;;;;;;;22.38;11.75;;;;;;;8.48;49.30;102994.53;5007962;28;20057;-78
2022/01/25 09:20:21;;;;;;;22.30;12.60;;;;;;;8.50;48.98;102995.34;5013022;28;20069;-78
2022/01/25 09:22:47;;;;;;;23.05;12.27;;;;;;;8.51;49.01;102999.84;5012082;28;20053;-79
2022/01/25 09:25:29;;;;;;;22.33;12.60;;;;;;;8.51;49.12;103000.72;5009250;28;20054;-79
2022/01/25 09:27:57;;;;;;;20.08;12.60;;;;;;;8.53;49.03;102995.28;5004867;28;20508;-80
2022/01/25 09:30:23;;;;;;;21.45;13.13;;;;;;;8.52;49.20;102997.09;5005815;28;20074;-79
2022/01/25 09:32:50;;;;;;;24.88;12.90;;;;;;;8.54;48.94;102997.06;5012881;28;20133;-80
2022/01/25 09:35:17;;;;;;;23.08;12.93;;;;;;;8.54;48.86;103002.47;5018627;28;20050;-80
2022/01/25 09:37:44;;;;;;;21.30;12.55;;;;;;;8.56;48.99;103008.75;5008720;28;20141;-80
2022/01/25 09:40:12;;;;;;;21.42;12.30;;;;;;;8.55;48.82;103005.16;5009924;28;20137;-78
2022/01/25 09:42:39;;;;;;;21.70;12.35;;;;;;;8.55;48.95;103001.56;5015022;28;20144;-79
2022/01/25 09:45:07;;;;;;;20.90;12.32;;;;;;;8.54;48.92;103008.78;5017153;28;20065;-80
2022/01/25 09:47:37;;;;;;;25.13;13.52;;;;;;;8.55;48.75;103004.28;5015337;28;20046;-79
2022/01/25 09:50:03;;;;;;;23.13;13.20;;;;;;;8.52;48.92;103007.94;5011952;28;20112;-78
2022/01/25 09:52:31;;;;;;;23.27;13.02;;;;;;;8.51;48.82;103011.56;5017587;28;20156;-78
2022/01/25 09:55:00;;;;;;;21.15;12.68;;;;;;;8.51;48.59;103010.66;5018686;28;20115;-78
2022/01/25 09:57:27;;;;;;;24.05;13.35;;;;;;;8.47;48.95;103009.88;5011628;28;20500;-78
2022/01/25 09:59:56;;;;;;;22.77;11.98;;;;;;;8.46;49.15;103016.22;5011256;28;20080;-78
2022/01/25 10:02:52;;;;;;;22.55;12.63;;;;;;;8.44;48.59;103015.34;5012242;28;20053;-78
2022/01/25 10:05:26;;;;;;;21.65;12.52;;;;;;;8.43;49.03;103007.25;5007488;28;20054;-78
2022/01/25 10:08:05;;;;;;;23.85;13.55;;;;;;;8.45;48.66;103018.94;5011374;28;20119;-78
2022/01/25 10:10:35;;;;;;;25.40;13.13;;;;;;;8.41;49.02;103015.41;5001366;28;20524;-78
2022/01/25 10:13:09;;;;;;;20.88;13.05;;;;;;;8.44;48.78;103020.75;5011254;28;20104;-78
2022/01/25 10:15:37;;;;;;;22.52;13.10;;;;;;;8.40;48.98;103016.31;5008730;28;20516;-79
2022/01/25 10:18:19;;;;;;;;;;;;;;;8.21;49.30;103021.25;5012761;28;20424;-79
2022/01/25 10:20:48;;;;;;;20.92;11.15;;;;;;;8.39;49.19;103014.56;5009976;28;19928;-79
2022/01/25 10:23:30;;;;;;;19.17;10.52;;;;;;;8.44;49.19;103020.75;5012234;28;20053;-79
2022/01/25 10:26:00;;;;;;;22.90;12.15;;;;;;;8.47;49.45;103025.22;5009580;28;20061;-79
2022/01/25 10:28:31;;;;;;;20.85;11.55;;;;;;;8.50;49.45;103017.91;5012171;28;20532;-79
2022/01/25 10:31:03;;;;;;;22.08;12.30;;;;;;;8.55;49.33;103021.41;5009570;28;20108;-79
2022/01/25 10:33:50;;;;;;;21.30;12.73;;;;;;;8.56;49.32;103017.78;5013975;28;20084;-79
2022/01/25 10:36:57;;;;;;;19.48;11.45;;;;;;;8.60;49.23;103018.56;5011045;28;20053;-79
2022/01/25 10:39:33;;;;;;;24.25;12.27;;;;;;;8.65;49.04;103028.34;5007365;28;20045;-77
2022/01/25 10:42:05;;;;;;;23.55;12.75;;;;;;;8.67;48.87;103021.09;5020370;28;20050;-77
2022/01/25 10:44:52;;;;;;;21.40;12.73;;;;;;;8.70;48.79;103012.00;5008259;28;20137;-78
2022/01/25 10:47:37;;;;;;;23.13;12.90;;;;;;;8.68;49.14;103011.16;5009487;28;20477;-78
2022/01/25 10:50:17;;;;;;;22.88;13.07;;;;;;;8.69;48.63;103013.81;5006849;28;20053;-80
2022/01/25 10:52:45;;;;;;;21.17;13.25;;;;;;;8.65;48.93;103009.41;5010918;28;20073;-78
2022/01/25 10:55:13;;;;;;;21.90;13.00;;;;;;;8.65;48.92;103003.09;5008630;28;20121;-79
2022/01/25 10:57:40;;;;;;;20.55;11.65;;;;;;;8.65;48.96;103008.50;5011772;28;20058;-79
2022/01/25 11:00:31;;;;;;;22.42;12.20;;;;;;;8.65;48.90;103006.69;5012527;28;20069;-79
2022/01/25 11:02:58;;;;;;;23.45;12.15;;;;;;;8.64;49.13;103002.22;5021056;28;20049;-79
2022/01/25 11:05:26;;;;;;;22.42;12.63;;;;;;;8.67;48.91;103006.66;5011812;28;20085;-79
2022/01/25 11:07:52;;;;;;;22.90;13.50;;;;;;;8.68;48.95;103005.75;5014489;28;20060;-78
2022/01/25 11:10:21;;;;;;;25.25;14.00;;;;;;;8.69;48.94;103002.09;5010306;28;20057;-79
2022/01/25 11:13:10;;;;;;;23.27;13.27;;;;;;;8.69;48.88;103005.69;5010142;28;20133;-79
2022/01/25 11:15:37;;;;;;;23.90;12.82;;;;;;;8.67;48.96;102995.81;5018951;28;20148;-78
2022/01/25 11:18:05;;;;;;;25.55;13.38;;;;;;;8.68;48.80;102995.78;5016043;28;20080;-79
2022/01/25 11:20:33;;;;;;;22.83;12.93;;;;;;;8.68;48.84;103003.91;5010439;28;20470;-78
2022/01/25 11:23:01;;;;;;;25.27;13.70;;;;;;;8.68;48.37;102994.91;5032488;28;20050;-78
2022/01/25 11:25:33;;;;;;;;;;;;;;;8.44;49.10;102996.41;5014714;28;20069;-78
2022/01/25 11:28:00;;;;;;;22.08;12.32;;;;;;;8.58;48.85;102994.22;5012294;28;19926;-79
2022/01/25 11:30:27;;;;;;;26.45;13.88;;;;;;;8.60;48.67;102997.81;5005314;28;20054;-79
2022/01/25 11:32:55;;;;;;;24.95;13.43;;;;;;;8.60;48.75;103000.50;5011398;28;20111;-79
2022/01/25 11:35:25;;;;;;;22.42;12.18;;;;;;;8.60;48.83;102994.19;5006236;28;20108;-79
2022/01/25 11:37:53;;;;;;;22.38;12.00;;;;;;;8.58;48.84;103005.06;5011663;28;20077;-79
2022/01/25 11:40:20;;;;;;;22.70;12.98;;;;;;;8.60;48.88;102996.91;5006980;28;20096;-80
2022/01/25 11:42:48;;;;;;;23.23;12.80;;;;;;;8.60;48.73;102995.09;5006063;28;20111;-79
2022/01/25 11:45:18;;;;;;;21.75;12.07;;;;;;;8.59;48.86;102997.84;5007625;28;20054;-79
2022/01/25 11:47:49;;;;;;;22.48;12.43;;;;;;;8.63;48.54;102997.75;5010077;28;20086;-79
2022/01/25 11:50:16;;;;;;;21.80;11.63;;;;;;;8.61;48.82;102996.00;5009561;28;20053;-78
2022/01/25 11:52:52;;;;;;;19.98;11.13;;;;;;;8.63;48.69;102989.63;5002683;28;20049;-80
2022/01/25 11:55:31;;;;;;;21.67;10.45;;;;;;;8.61;48.58;102996.88;5006738;28;20563;-79
2022/01/25 11:58:07;;;;;;;20.77;11.07;;;;;;;8.62;48.34;102995.97;5013535;28;20053;-80
2022/01/25 12:00:40;;;;;;;24.90;13.57;;;;;;;8.62;48.20;102995.06;5012023;28;20058;-79
2022/01/25 12:03:38;;;;;;;23.90;12.35;;;;;;;8.57;48.28;102987.03;5004469;28;20563;-79
2022/01/25 12:06:13;;;;;;;22.27;11.35;;;;;;;8.53;48.82;102989.88;5008332;28;20058;-79
2022/01/25 12:08:52;;;;;;;20.05;10.48;;;;;;;8.53;48.56;102988.06;5009198;28;20046;-79
2022/01/25 12:11:35;;;;;;;21.20;11.13;;;;;;;8.52;48.29;102985.38;4998232;28;20042;-80
2022/01/25 12:14:17;;;;;;;19.60;11.82;;;;;;;8.51;48.29;102984.50;5006330;28;20108;-79
2022/01/25 12:17:12;;;;;;;23.45;12.00;;;;;;;8.49;48.30;102996.28;4975823;28;20042;-78
2022/01/25 12:19:49;;;;;;;23.73;12.73;;;;;;;8.45;48.59;102987.34;4980925;28;20050;-78
2022/01/25 12:22:25;;;;;;;25.92;13.13;;;;;;;8.46;48.51;102982.81;5008432;28;20682;-77
2022/01/25 12:27:44;;;;;;;21.67;11.30;;;;;;;8.43;48.43;102994.59;4978309;28;20134;-77
2022/01/25 12:30:15;;;;;;;22.67;11.82;;;;;;;8.39;48.50;102991.09;4988067;28;20062;-77
2022/01/25 12:33:02;;;;;;;23.33;12.20;;;;;;;8.41;48.27;102985.63;4986688;28;20070;-76
2022/01/25 12:35:47;;;;;;;23.02;11.73;;;;;;;8.39;48.26;102988.41;4979609;28;20169;-75
2022/01/25 12:38:25;;;;;;;23.10;12.07;;;;;;;8.35;48.53;102992.09;4983997;28;20050;-75
2022/01/25 12:41:21;;;;;;;22.65;12.23;;;;;;;8.34;48.52;102974.06;4996555;28;20532;-75
2022/01/25 12:43:51;;;;;;;24.40;12.18;;;;;;;8.30;48.76;102976.84;5003654;28;20077;-75
2022/01/25 12:46:26;;;;;;;27.38;13.07;;;;;;;8.31;48.63;102974.16;5005630;28;20072;-76
2022/01/25 12:49:03;;;;;;;24.15;12.43;;;;;;;8.33;48.56;102969.56;5008695;28;20516;-75
2022/01/25 12:51:35;;;;;;;23.98;11.80;;;;;;;8.32;48.83;102975.00;5007581;28;20141;-75
2022/01/25 12:54:05;;;;;;;25.20;12.48;;;;;;;8.33;48.71;102971.38;5008610;28;20490;-75
2022/01/25 12:56:51;;;;;;;23.83;12.20;;;;;;;8.31;48.67;102959.72;4932932;28;20042;-76
2022/01/25 12:59:22;;;;;;;24.30;12.95;;;;;;;8.34;49.01;102952.41;4960929;28;20225;-77
2022/01/25 13:01:51;;;;;;;25.55;12.45;;;;;;;8.34;48.77;102965.94;4966528;28;20190;-76
2022/01/25 13:04:18;;;;;;;21.65;10.50;;;;;;;8.34;49.03;102951.53;4964937;28;20047;-75
2022/01/25 13:06:50;;;;;;;22.17;10.45;;;;;;;8.36;48.98;102949.69;4966289;28;20550;-76
2022/01/25 13:09:35;;;;;;;24.05;11.35;;;;;;;8.37;48.86;102944.22;4964949;28;20055;-75
2022/01/25 13:17:07;;;;;;;24.38;12.10;;;;;;;8.47;49.25;102936.78;4996758;28;20045;-76
2022/01/25 13:19:40;;;;;;;22.83;10.95;;;;;;;8.51;48.92;102935.75;5007081;28;20084;-76
2022/01/25 13:22:15;;;;;;;21.13;10.70;;;;;;;8.55;48.89;102939.28;5014304;28;20065;-76
2022/01/25 13:31:03;;;;;;;21.25;9.82;;;;;;;8.65;49.17;102922.75;4978153;28;20045;-76
2022/01/25 13:34:04;;;;;;;18.85;9.32;;;;;;;8.72;48.83;102915.38;4992771;28;20129;-77
2022/01/25 13:36:33;;;;;;;20.23;9.98;;;;;;;8.72;49.18;102913.56;4998297;28;20128;-76
2022/01/25 13:39:00;;;;;;;19.15;9.82;;;;;;;8.78;49.16;102913.38;5007182;28;20050;-76